sensor_id;sensor_type;location;lat;lon;timestamp;temperature;humidity
25170;DHT22;13129;48.012;10.352;2023-04-23T03:32:06;10.40;99.90
25170;DHT22;13129;48.012;10.352;2023-04-23T03:34:31;10.30;99.90
25170;DHT22;13129;48.012;10.352;2023-04-23T03:36:57;10.30;99.90
25170;DHT22;13129;48.012;10.352;2023-04-23T03:39:23;10.30;99.90
25170;DHT22;13129;48.012;10.352;2023-04-23T03:41:48;10.30;99.90
25170;DHT22;13129;48.012;10.352;2023-04-23T03:44:14;10.30;99.90
25170;DHT22;13129;48.012;10.352;2023-04-23T03:46:40;10.30;99.90
25170;DHT22;13129;48.012;10.352;2023-04-23T03:49:06;10.30;99.90
25170;DHT22;13129;48.012;10.352;2023-04-23T03:51:31;10.30;99.90
25170;DHT22;13129;48.012;10.352;2023-04-23T03:53:57;10.40;99.90
25170;DHT22;13129;48.012;10.352;2023-04-23T03:56:22;10.40;99.90
25170;DHT22;13129;48.012;10.352;2023-04-23T03:58:48;10.30;99.90
25170;DHT22;13129;48.012;10.352;2023-04-23T04:01:14;10.40;99.90
25170;DHT22;13129;48.012;10.352;2023-04-23T04:03:39;10.50;99.90
25170;DHT22;13129;48.012;10.352;2023-04-23T04:06:05;10.50;99.90
25170;DHT22;13129;48.012;10.352;2023-04-23T04:08:32;10.50;99.90
25170;DHT22;13129;48.012;10.352;2023-04-23T04:10:57;10.50;99.90
25170;DHT22;13129;48.012;10.352;2023-04-23T04:13:23;10.50;99.90
25170;DHT22;13129;48.012;10.352;2023-04-23T04:15:49;10.40;99.90
25170;DHT22;13129;48.012;10.352;2023-04-23T04:18:14;10.40;99.90
25170;DHT22;13129;48.012;10.352;2023-04-23T04:20:40;10.40;99.90
25170;DHT22;13129;48.012;10.352;2023-04-23T04:23:08;10.40;99.90
25170;DHT22;13129;48.012;10.352;2023-04-23T04:25:34;10.40;99.90
25170;DHT22;13129;48.012;10.352;2023-04-23T04:28:04;10.40;99.90
25170;DHT22;13129;48.012;10.352;2023-04-23T04:30:32;10.40;99.90
25170;DHT22;13129;48.012;10.352;2023-04-23T04:32:58;10.40;99.90
25170;DHT22;13129;48.012;10.352;2023-04-23T04:35:25;10.50;99.90
25170;DHT22;13129;48.012;10.352;2023-04-23T04:37:51;10.50;99.90
25170;DHT22;13129;48.012;10.352;2023-04-23T04:40:18;10.40;99.90
25170;DHT22;13129;48.012;10.352;2023-04-23T04:42:44;10.50;99.90
25170;DHT22;13129;48.012;10.352;2023-04-23T04:45:11;10.50;99.90
25170;DHT22;13129;48.012;10.352;2023-04-23T04:47:36;10.50;99.90
25170;DHT22;13129;48.012;10.352;2023-04-23T04:50:03;10.50;99.90
25170;DHT22;13129;48.012;10.352;2023-04-23T04:52:30;10.50;99.90
25170;DHT22;13129;48.012;10.352;2023-04-23T04:54:55;10.40;99.90
25170;DHT22;13129;48.012;10.352;2023-04-23T04:57:21;10.40;99.90
25170;DHT22;13129;48.012;10.352;2023-04-23T04:59:48;10.40;99.90
25170;DHT22;13129;48.012;10.352;2023-04-23T05:02:13;10.40;99.90
25170;DHT22;13129;48.012;10.352;2023-04-23T05:04:39;10.50;99.90
25170;DHT22;13129;48.012;10.352;2023-04-23T05:07:05;10.50;99.90
25170;DHT22;13129;48.012;10.352;2023-04-23T05:09:31;10.50;99.90
25170;DHT22;13129;48.012;10.352;2023-04-23T05:11:57;10.50;99.90
25170;DHT22;13129;48.012;10.352;2023-04-23T05:14:22;10.40;99.90
25170;DHT22;13129;48.012;10.352;2023-04-23T05:16:50;10.40;99.90
25170;DHT22;13129;48.012;10.352;2023-04-23T05:19:16;10.40;99.90
25170;DHT22;13129;48.012;10.352;2023-04-23T05:21:42;10.40;99.90
25170;DHT22;13129;48.012;10.352;2023-04-23T05:24:07;10.30;99.90
25170;DHT22;13129;48.012;10.352;2023-04-23T05:26:33;10.30;99.90
25170;DHT22;13129;48.012;10.352;2023-04-23T05:28:59;10.30;99.90
25170;DHT22;13129;48.012;10.352;2023-04-23T05:31:24;10.20;99.90
25170;DHT22;13129;48.012;10.352;2023-04-23T05:33:50;10.20;99.90
25170;DHT22;13129;48.012;10.352;2023-04-23T05:36:16;10.20;99.90
25170;DHT22;13129;48.012;10.352;2023-04-23T05:38:41;10.30;99.90
25170;DHT22;13129;48.012;10.352;2023-04-23T05:41:07;10.30;99.90
25170;DHT22;13129;48.012;10.352;2023-04-23T05:43:33;10.30;99.90
25170;DHT22;13129;48.012;10.352;2023-04-23T05:45:58;10.40;99.90
25170;DHT22;13129;48.012;10.352;2023-04-23T05:48:24;10.40;99.90
25170;DHT22;13129;48.012;10.352;2023-04-23T05:50:50;10.40;99.90
25170;DHT22;13129;48.012;10.352;2023-04-23T05:53:15;10.50;99.90
25170;DHT22;13129;48.012;10.352;2023-04-23T05:55:41;10.50;99.90
25170;DHT22;13129;48.012;10.352;2023-04-23T05:58:06;10.50;99.90
25170;DHT22;13129;48.012;10.352;2023-04-23T06:00:32;10.50;99.90
25170;DHT22;13129;48.012;10.352;2023-04-23T06:02:59;10.50;99.90
25170;DHT22;13129;48.012;10.352;2023-04-23T06:05:25;10.60;99.90
25170;DHT22;13129;48.012;10.352;2023-04-23T06:07:51;10.60;99.90
25170;DHT22;13129;48.012;10.352;2023-04-23T06:10:16;10.60;99.90
25170;DHT22;13129;48.012;10.352;2023-04-23T06:12:42;10.70;99.90
25170;DHT22;13129;48.012;10.352;2023-04-23T06:15:08;10.70;99.90
25170;DHT22;13129;48.012;10.352;2023-04-23T06:17:34;10.60;99.90
25170;DHT22;13129;48.012;10.352;2023-04-23T06:20:01;10.60;99.90
25170;DHT22;13129;48.012;10.352;2023-04-23T06:22:26;10.70;99.90
25170;DHT22;13129;48.012;10.352;2023-04-23T06:24:52;10.70;99.90
25170;DHT22;13129;48.012;10.352;2023-04-23T06:27:18;10.80;99.90
25170;DHT22;13129;48.012;10.352;2023-04-23T06:29:43;10.90;99.90
25170;DHT22;13129;48.012;10.352;2023-04-23T06:32:09;10.90;99.90
25170;DHT22;13129;48.012;10.352;2023-04-23T06:34:35;10.90;99.90
25170;DHT22;13129;48.012;10.352;2023-04-23T06:37:00;10.90;99.90
25170;DHT22;13129;48.012;10.352;2023-04-23T06:39:26;10.90;99.90
25170;DHT22;13129;48.012;10.352;2023-04-23T06:41:52;10.90;99.90
25170;DHT22;13129;48.012;10.352;2023-04-23T06:44:18;10.90;99.90
25170;DHT22;13129;48.012;10.352;2023-04-23T06:46:43;11.00;99.90
25170;DHT22;13129;48.012;10.352;2023-04-23T06:49:09;11.10;99.90
25170;DHT22;13129;48.012;10.352;2023-04-23T06:51:35;11.10;99.90
25170;DHT22;13129;48.012;10.352;2023-04-23T06:54:00;11.10;99.90
25170;DHT22;13129;48.012;10.352;2023-04-23T06:56:26;11.20;99.90
25170;DHT22;13129;48.012;10.352;2023-04-23T06:58:52;11.30;99.90
25170;DHT22;13129;48.012;10.352;2023-04-23T07:01:18;11.40;99.90
25170;DHT22;13129;48.012;10.352;2023-04-23T07:03:43;11.50;99.90
25170;DHT22;13129;48.012;10.352;2023-04-23T07:06:16;11.60;99.90
25170;DHT22;13129;48.012;10.352;2023-04-23T07:08:44;11.70;99.90
25170;DHT22;13129;48.012;10.352;2023-04-23T07:11:10;11.80;99.90
25170;DHT22;13129;48.012;10.352;2023-04-23T07:13:37;12.10;99.90
25170;DHT22;13129;48.012;10.352;2023-04-23T07:16:02;12.70;99.90
25170;DHT22;13129;48.012;10.352;2023-04-23T07:18:28;13.20;99.90
25170;DHT22;13129;48.012;10.352;2023-04-23T07:20:54;13.70;99.90
25170;DHT22;13129;48.012;10.352;2023-04-23T07:23:20;14.00;99.90
25170;DHT22;13129;48.012;10.352;2023-04-23T07:25:45;14.10;99.90
25170;DHT22;13129;48.012;10.352;2023-04-23T07:28:11;14.20;99.90
25170;DHT22;13129;48.012;10.352;2023-04-23T07:30:36;14.40;99.90
25170;DHT22;13129;48.012;10.352;2023-04-23T07:33:02;14.50;99.90
25170;DHT22;13129;48.012;10.352;2023-04-23T07:35:28;14.60;99.90
25170;DHT22;13129;48.012;10.352;2023-04-23T07:37:53;14.70;99.90
25170;DHT22;13129;48.012;10.352;2023-04-23T07:40:22;14.70;99.90
25170;DHT22;13129;48.012;10.352;2023-04-23T07:42:48;14.80;99.90
25170;DHT22;13129;48.012;10.352;2023-04-23T07:45:14;15.00;99.90
25170;DHT22;13129;48.012;10.352;2023-04-23T07:47:40;15.30;99.90
25170;DHT22;13129;48.012;10.352;2023-04-23T07:50:06;15.60;99.90
25170;DHT22;13129;48.012;10.352;2023-04-23T07:52:32;16.10;99.90
25170;DHT22;13129;48.012;10.352;2023-04-23T07:54:57;16.50;99.90
25170;DHT22;13129;48.012;10.352;2023-04-23T07:57:24;16.70;99.90
25170;DHT22;13129;48.012;10.352;2023-04-23T07:59:50;16.50;99.90
25170;DHT22;13129;48.012;10.352;2023-04-23T08:02:15;16.40;99.90
25170;DHT22;13129;48.012;10.352;2023-04-23T08:04:42;16.20;99.90
25170;DHT22;13129;48.012;10.352;2023-04-23T08:07:08;15.90;99.90
25170;DHT22;13129;48.012;10.352;2023-04-23T08:09:33;15.70;99.90
25170;DHT22;13129;48.012;10.352;2023-04-23T08:11:59;15.50;99.90
25170;DHT22;13129;48.012;10.352;2023-04-23T08:14:27;15.60;99.90
25170;DHT22;13129;48.012;10.352;2023-04-23T08:16:54;15.90;99.90
25170;DHT22;13129;48.012;10.352;2023-04-23T08:19:20;16.20;99.90
25170;DHT22;13129;48.012;10.352;2023-04-23T08:21:46;16.30;99.90
25170;DHT22;13129;48.012;10.352;2023-04-23T08:24:11;16.30;99.90
25170;DHT22;13129;48.012;10.352;2023-04-23T08:26:37;16.30;99.90
25170;DHT22;13129;48.012;10.352;2023-04-23T08:29:03;16.30;99.90
25170;DHT22;13129;48.012;10.352;2023-04-23T08:31:29;16.20;99.90
25170;DHT22;13129;48.012;10.352;2023-04-23T08:33:55;15.90;99.90
25170;DHT22;13129;48.012;10.352;2023-04-23T08:36:21;15.90;99.90
25170;DHT22;13129;48.012;10.352;2023-04-23T08:38:47;15.90;99.90
25170;DHT22;13129;48.012;10.352;2023-04-23T08:41:14;16.00;99.90
25170;DHT22;13129;48.012;10.352;2023-04-23T08:43:50;16.00;99.90
25170;DHT22;13129;48.012;10.352;2023-04-23T08:46:18;16.10;99.90
25170;DHT22;13129;48.012;10.352;2023-04-23T08:48:44;16.00;99.90
25170;DHT22;13129;48.012;10.352;2023-04-23T08:51:17;16.10;99.90
25170;DHT22;13129;48.012;10.352;2023-04-23T08:53:45;16.00;99.90
25170;DHT22;13129;48.012;10.352;2023-04-23T08:56:16;16.10;99.90
25170;DHT22;13129;48.012;10.352;2023-04-23T08:58:48;16.30;99.90
25170;DHT22;13129;48.012;10.352;2023-04-23T09:01:16;16.40;99.90
25170;DHT22;13129;48.012;10.352;2023-04-23T09:03:42;16.70;99.90
25170;DHT22;13129;48.012;10.352;2023-04-23T09:06:10;17.30;99.90
25170;DHT22;13129;48.012;10.352;2023-04-23T09:08:37;18.20;99.90
25170;DHT22;13129;48.012;10.352;2023-04-23T09:11:07;19.80;99.90
25170;DHT22;13129;48.012;10.352;2023-04-23T09:13:37;21.80;99.90
25170;DHT22;13129;48.012;10.352;2023-04-23T09:16:06;23.80;99.90
25170;DHT22;13129;48.012;10.352;2023-04-23T09:18:33;24.30;97.10
25170;DHT22;13129;48.012;10.352;2023-04-23T09:21:01;24.20;94.50
25170;DHT22;13129;48.012;10.352;2023-04-23T09:23:30;24.20;94.50
25170;DHT22;13129;48.012;10.352;2023-04-23T09:25:56;24.40;92.70
25170;DHT22;13129;48.012;10.352;2023-04-23T09:28:34;24.90;93.00
25170;DHT22;13129;48.012;10.352;2023-04-23T09:31:00;26.00;90.10
25170;DHT22;13129;48.012;10.352;2023-04-23T09:33:29;26.70;84.40
25170;DHT22;13129;48.012;10.352;2023-04-23T09:35:55;27.10;80.50
25170;DHT22;13129;48.012;10.352;2023-04-23T09:38:21;27.90;80.20
25170;DHT22;13129;48.012;10.352;2023-04-23T09:40:49;29.60;78.30
25170;DHT22;13129;48.012;10.352;2023-04-23T09:43:16;30.40;71.70
25170;DHT22;13129;48.012;10.352;2023-04-23T09:45:49;31.60;67.40
25170;DHT22;13129;48.012;10.352;2023-04-23T09:48:15;32.60;61.60
25170;DHT22;13129;48.012;10.352;2023-04-23T09:50:41;32.80;59.30
25170;DHT22;13129;48.012;10.352;2023-04-23T09:53:09;32.50;58.90
25170;DHT22;13129;48.012;10.352;2023-04-23T09:55:37;30.90;59.00
25170;DHT22;13129;48.012;10.352;2023-04-23T09:58:13;29.50;61.10
25170;DHT22;13129;48.012;10.352;2023-04-23T10:00:40;28.20;62.80
25170;DHT22;13129;48.012;10.352;2023-04-23T10:03:07;27.60;63.80
25170;DHT22;13129;48.012;10.352;2023-04-23T10:05:43;27.40;62.20
25170;DHT22;13129;48.012;10.352;2023-04-23T10:08:10;27.80;63.50
25170;DHT22;13129;48.012;10.352;2023-04-23T10:10:38;28.60;62.10
25170;DHT22;13129;48.012;10.352;2023-04-23T10:13:05;29.50;59.70
25170;DHT22;13129;48.012;10.352;2023-04-23T10:15:32;30.60;58.70
25170;DHT22;13129;48.012;10.352;2023-04-23T10:17:58;31.50;55.80
25170;DHT22;13129;48.012;10.352;2023-04-23T10:20:25;32.00;56.00
25170;DHT22;13129;48.012;10.352;2023-04-23T10:22:52;32.50;54.80
25170;DHT22;13129;48.012;10.352;2023-04-23T10:25:19;32.90;53.60
25170;DHT22;13129;48.012;10.352;2023-04-23T10:27:48;33.00;52.10
25170;DHT22;13129;48.012;10.352;2023-04-23T10:30:14;31.70;52.70
25170;DHT22;13129;48.012;10.352;2023-04-23T10:32:41;31.20;54.20
25170;DHT22;13129;48.012;10.352;2023-04-23T10:35:08;30.90;53.00
25170;DHT22;13129;48.012;10.352;2023-04-23T10:37:35;30.30;53.60
25170;DHT22;13129;48.012;10.352;2023-04-23T10:40:09;29.60;55.30
25170;DHT22;13129;48.012;10.352;2023-04-23T10:42:38;29.10;56.40
25170;DHT22;13129;48.012;10.352;2023-04-23T10:45:15;28.00;58.40
25170;DHT22;13129;48.012;10.352;2023-04-23T10:47:42;26.80;59.60
25170;DHT22;13129;48.012;10.352;2023-04-23T10:50:29;25.50;63.00
25170;DHT22;13129;48.012;10.352;2023-04-23T10:53:01;25.00;65.60
25170;DHT22;13129;48.012;10.352;2023-04-23T10:55:29;24.70;66.70
25170;DHT22;13129;48.012;10.352;2023-04-23T10:58:03;23.90;66.70
25170;DHT22;13129;48.012;10.352;2023-04-23T11:03:38;23.20;69.70
25170;DHT22;13129;48.012;10.352;2023-04-23T11:06:05;23.10;68.80
25170;DHT22;13129;48.012;10.352;2023-04-23T11:08:34;23.30;69.30
25170;DHT22;13129;48.012;10.352;2023-04-23T11:11:07;23.10;69.40
25170;DHT22;13129;48.012;10.352;2023-04-23T11:13:33;22.70;68.30
25170;DHT22;13129;48.012;10.352;2023-04-23T11:16:22;22.40;68.20
25170;DHT22;13129;48.012;10.352;2023-04-23T11:19:08;21.90;68.30
25170;DHT22;13129;48.012;10.352;2023-04-23T11:24:41;20.60;72.80
25170;DHT22;13129;48.012;10.352;2023-04-23T11:27:16;20.10;75.30
25170;DHT22;13129;48.012;10.352;2023-04-23T11:29:44;19.70;77.80
25170;DHT22;13129;48.012;10.352;2023-04-23T11:32:12;19.50;78.30
25170;DHT22;13129;48.012;10.352;2023-04-23T11:34:41;19.40;77.70
25170;DHT22;13129;48.012;10.352;2023-04-23T11:37:14;19.30;78.70
25170;DHT22;13129;48.012;10.352;2023-04-23T11:39:41;18.90;81.00
25170;DHT22;13129;48.012;10.352;2023-04-23T11:42:15;18.90;81.80
25170;DHT22;13129;48.012;10.352;2023-04-23T11:44:42;19.00;81.40
25170;DHT22;13129;48.012;10.352;2023-04-23T11:47:10;19.00;80.70
25170;DHT22;13129;48.012;10.352;2023-04-23T11:49:36;19.00;80.30
25170;DHT22;13129;48.012;10.352;2023-04-23T11:52:02;19.30;79.90
25170;DHT22;13129;48.012;10.352;2023-04-23T11:54:28;19.60;80.10
25170;DHT22;13129;48.012;10.352;2023-04-23T11:56:55;19.90;80.00
25170;DHT22;13129;48.012;10.352;2023-04-23T11:59:22;20.20;78.20
25170;DHT22;13129;48.012;10.352;2023-04-23T12:01:50;20.30;76.70
25170;DHT22;13129;48.012;10.352;2023-04-23T12:04:18;20.30;77.40
25170;DHT22;13129;48.012;10.352;2023-04-23T12:06:45;20.50;75.90
25170;DHT22;13129;48.012;10.352;2023-04-23T12:09:12;20.70;77.10
25170;DHT22;13129;48.012;10.352;2023-04-23T12:11:40;20.80;77.10
25170;DHT22;13129;48.012;10.352;2023-04-23T12:14:07;20.90;76.70
25170;DHT22;13129;48.012;10.352;2023-04-23T12:16:40;20.70;75.90
25170;DHT22;13129;48.012;10.352;2023-04-23T12:19:07;20.30;75.10
25170;DHT22;13129;48.012;10.352;2023-04-23T12:21:54;20.00;75.00
25170;DHT22;13129;48.012;10.352;2023-04-23T12:24:29;20.30;75.80
25170;DHT22;13129;48.012;10.352;2023-04-23T12:26:59;20.60;73.80
25170;DHT22;13129;48.012;10.352;2023-04-23T12:29:29;20.20;72.80
25170;DHT22;13129;48.012;10.352;2023-04-23T12:31:57;19.80;74.50
25170;DHT22;13129;48.012;10.352;2023-04-23T12:34:23;19.50;75.90
25170;DHT22;13129;48.012;10.352;2023-04-23T12:36:51;19.40;78.10
25170;DHT22;13129;48.012;10.352;2023-04-23T12:39:36;19.60;78.00
25170;DHT22;13129;48.012;10.352;2023-04-23T12:42:05;19.80;78.40
25170;DHT22;13129;48.012;10.352;2023-04-23T12:44:36;20.00;78.60
25170;DHT22;13129;48.012;10.352;2023-04-23T12:47:07;19.90;78.70
25170;DHT22;13129;48.012;10.352;2023-04-23T12:49:35;19.90;78.70
25170;DHT22;13129;48.012;10.352;2023-04-23T12:52:02;20.10;78.50
25170;DHT22;13129;48.012;10.352;2023-04-23T12:54:33;20.20;78.70
25170;DHT22;13129;48.012;10.352;2023-04-23T12:57:01;20.10;78.80
25170;DHT22;13129;48.012;10.352;2023-04-23T12:59:28;20.20;79.90
25170;DHT22;13129;48.012;10.352;2023-04-23T13:01:53;20.10;79.00
25170;DHT22;13129;48.012;10.352;2023-04-23T13:04:19;20.00;77.10
25170;DHT22;13129;48.012;10.352;2023-04-23T13:06:45;19.60;76.30
25170;DHT22;13129;48.012;10.352;2023-04-23T13:09:11;19.50;77.00
25170;DHT22;13129;48.012;10.352;2023-04-23T13:11:38;19.60;77.60
25170;DHT22;13129;48.012;10.352;2023-04-23T13:14:04;19.80;78.50
25170;DHT22;13129;48.012;10.352;2023-04-23T13:16:30;20.10;77.50
25170;DHT22;13129;48.012;10.352;2023-04-23T13:18:56;20.30;77.40
25170;DHT22;13129;48.012;10.352;2023-04-23T13:21:22;20.50;76.70
25170;DHT22;13129;48.012;10.352;2023-04-23T13:23:49;20.60;76.20
25170;DHT22;13129;48.012;10.352;2023-04-23T13:26:15;20.70;75.80
25170;DHT22;13129;48.012;10.352;2023-04-23T13:28:40;20.60;76.20
25170;DHT22;13129;48.012;10.352;2023-04-23T13:31:06;20.70;77.00
25170;DHT22;13129;48.012;10.352;2023-04-23T13:33:32;20.60;75.00
25170;DHT22;13129;48.012;10.352;2023-04-23T13:36:00;20.50;74.20
25170;DHT22;13129;48.012;10.352;2023-04-23T13:38:26;20.30;73.80
25170;DHT22;13129;48.012;10.352;2023-04-23T13:40:52;20.40;74.20
25170;DHT22;13129;48.012;10.352;2023-04-23T13:43:18;20.30;73.40
25170;DHT22;13129;48.012;10.352;2023-04-23T13:45:44;20.00;73.40
25170;DHT22;13129;48.012;10.352;2023-04-23T13:48:10;20.00;74.40
25170;DHT22;13129;48.012;10.352;2023-04-23T13:50:36;20.00;75.20
25170;DHT22;13129;48.012;10.352;2023-04-23T13:53:02;19.80;75.60
25170;DHT22;13129;48.012;10.352;2023-04-23T13:55:28;19.60;75.90
25170;DHT22;13129;48.012;10.352;2023-04-23T13:57:53;19.30;77.30
25170;DHT22;13129;48.012;10.352;2023-04-23T14:00:25;19.10;77.40
25170;DHT22;13129;48.012;10.352;2023-04-23T14:02:51;18.80;78.40
25170;DHT22;13129;48.012;10.352;2023-04-23T14:05:17;18.70;78.80
25170;DHT22;13129;48.012;10.352;2023-04-23T14:07:42;18.60;79.90
25170;DHT22;13129;48.012;10.352;2023-04-23T14:10:09;18.60;80.00
25170;DHT22;13129;48.012;10.352;2023-04-23T14:12:36;18.70;80.40
25170;DHT22;13129;48.012;10.352;2023-04-23T14:15:04;18.80;80.20
25170;DHT22;13129;48.012;10.352;2023-04-23T14:17:30;18.90;79.40
25170;DHT22;13129;48.012;10.352;2023-04-23T14:19:55;19.00;78.80
25170;DHT22;13129;48.012;10.352;2023-04-23T14:22:21;18.90;79.30
25170;DHT22;13129;48.012;10.352;2023-04-23T14:24:55;18.90;79.40
25170;DHT22;13129;48.012;10.352;2023-04-23T14:27:24;18.90;79.60
25170;DHT22;13129;48.012;10.352;2023-04-23T14:29:51;18.70;78.00
25170;DHT22;13129;48.012;10.352;2023-04-23T14:32:21;18.70;78.20
25170;DHT22;13129;48.012;10.352;2023-04-23T14:34:47;18.50;78.00
25170;DHT22;13129;48.012;10.352;2023-04-23T14:37:12;18.40;78.60
25170;DHT22;13129;48.012;10.352;2023-04-23T14:39:39;18.40;79.50
25170;DHT22;13129;48.012;10.352;2023-04-23T14:42:05;18.60;79.80
25170;DHT22;13129;48.012;10.352;2023-04-23T14:44:31;18.70;80.50
25170;DHT22;13129;48.012;10.352;2023-04-23T14:46:57;18.80;79.40
25170;DHT22;13129;48.012;10.352;2023-04-23T14:49:23;18.90;79.10
25170;DHT22;13129;48.012;10.352;2023-04-23T14:51:50;19.00;79.20
25170;DHT22;13129;48.012;10.352;2023-04-23T14:54:21;19.10;79.30
25170;DHT22;13129;48.012;10.352;2023-04-23T14:56:47;19.20;79.80
25170;DHT22;13129;48.012;10.352;2023-04-23T14:59:12;19.10;79.00
25170;DHT22;13129;48.012;10.352;2023-04-23T15:01:38;19.10;77.90
25170;DHT22;13129;48.012;10.352;2023-04-23T15:04:04;19.00;77.70
25170;DHT22;13129;48.012;10.352;2023-04-23T15:06:30;19.00;78.10
25170;DHT22;13129;48.012;10.352;2023-04-23T15:08:55;18.80;78.60
25170;DHT22;13129;48.012;10.352;2023-04-23T15:11:21;18.70;78.70
25170;DHT22;13129;48.012;10.352;2023-04-23T15:14:18;18.80;80.00
25170;DHT22;13129;48.012;10.352;2023-04-23T15:16:47;18.70;80.70
25170;DHT22;13129;48.012;10.352;2023-04-23T15:19:13;18.60;80.60
25170;DHT22;13129;48.012;10.352;2023-04-23T15:21:38;18.60;81.20
25170;DHT22;13129;48.012;10.352;2023-04-23T15:24:07;18.50;81.30
25170;DHT22;13129;48.012;10.352;2023-04-23T15:26:33;18.50;81.30
25170;DHT22;13129;48.012;10.352;2023-04-23T15:28:58;18.50;81.20
25170;DHT22;13129;48.012;10.352;2023-04-23T15:31:24;18.50;81.90
25170;DHT22;13129;48.012;10.352;2023-04-23T15:33:50;18.50;81.90
25170;DHT22;13129;48.012;10.352;2023-04-23T15:36:16;18.70;81.80
25170;DHT22;13129;48.012;10.352;2023-04-23T15:38:41;18.70;81.10
25170;DHT22;13129;48.012;10.352;2023-04-23T15:41:07;18.80;82.20
25170;DHT22;13129;48.012;10.352;2023-04-23T15:43:33;18.90;82.10
25170;DHT22;13129;48.012;10.352;2023-04-23T15:45:58;18.90;82.80
25170;DHT22;13129;48.012;10.352;2023-04-23T15:48:26;18.90;82.30
25170;DHT22;13129;48.012;10.352;2023-04-23T15:50:52;19.00;82.30
25170;DHT22;13129;48.012;10.352;2023-04-23T15:53:18;18.90;82.30
25170;DHT22;13129;48.012;10.352;2023-04-23T15:55:50;18.80;81.60
25170;DHT22;13129;48.012;10.352;2023-04-23T15:58:19;18.70;81.80
25170;DHT22;13129;48.012;10.352;2023-04-23T16:00:45;18.70;82.70
25170;DHT22;13129;48.012;10.352;2023-04-23T16:03:11;18.60;83.00
25170;DHT22;13129;48.012;10.352;2023-04-23T16:05:42;18.50;82.70
25170;DHT22;13129;48.012;10.352;2023-04-23T16:08:09;18.40;83.00
25170;DHT22;13129;48.012;10.352;2023-04-23T16:10:38;18.30;83.30
25170;DHT22;13129;48.012;10.352;2023-04-23T16:13:04;18.20;83.50
25170;DHT22;13129;48.012;10.352;2023-04-23T16:15:30;18.10;83.80
25170;DHT22;13129;48.012;10.352;2023-04-23T16:17:56;17.90;83.70
25170;DHT22;13129;48.012;10.352;2023-04-23T16:20:24;17.70;84.10
25170;DHT22;13129;48.012;10.352;2023-04-23T16:22:50;17.60;85.00
25170;DHT22;13129;48.012;10.352;2023-04-23T16:25:16;17.50;85.70
25170;DHT22;13129;48.012;10.352;2023-04-23T16:27:42;17.30;86.60
25170;DHT22;13129;48.012;10.352;2023-04-23T16:30:08;17.20;87.40
25170;DHT22;13129;48.012;10.352;2023-04-23T16:32:34;17.10;88.00
25170;DHT22;13129;48.012;10.352;2023-04-23T16:35:00;16.90;88.80
25170;DHT22;13129;48.012;10.352;2023-04-23T16:37:26;16.80;89.80
25170;DHT22;13129;48.012;10.352;2023-04-23T16:39:52;16.60;90.40
25170;DHT22;13129;48.012;10.352;2023-04-23T16:42:47;16.40;90.80
25170;DHT22;13129;48.012;10.352;2023-04-23T16:45:53;16.20;91.50
25170;DHT22;13129;48.012;10.352;2023-04-23T16:48:20;14.20;91.20
25170;DHT22;13129;48.012;10.352;2023-04-23T16:50:46;12.50;93.20
25170;DHT22;13129;48.012;10.352;2023-04-23T16:53:12;10.90;94.80
25170;DHT22;13129;48.012;10.352;2023-04-23T16:55:37;9.90;96.70
25170;DHT22;13129;48.012;10.352;2023-04-23T16:58:04;9.20;98.60
25170;DHT22;13129;48.012;10.352;2023-04-23T17:00:30;8.90;99.90
25170;DHT22;13129;48.012;10.352;2023-04-23T17:02:57;8.90;99.90
25170;DHT22;13129;48.012;10.352;2023-04-23T17:05:23;9.00;99.90
25170;DHT22;13129;48.012;10.352;2023-04-23T17:07:50;9.20;99.90
25170;DHT22;13129;48.012;10.352;2023-04-23T17:10:17;9.50;99.90
25170;DHT22;13129;48.012;10.352;2023-04-23T17:12:44;9.60;99.90
25170;DHT22;13129;48.012;10.352;2023-04-23T17:15:10;9.60;99.90
25170;DHT22;13129;48.012;10.352;2023-04-23T17:17:35;9.70;99.90
25170;DHT22;13129;48.012;10.352;2023-04-23T17:20:06;9.50;99.90
25170;DHT22;13129;48.012;10.352;2023-04-23T17:22:32;9.30;99.90
25170;DHT22;13129;48.012;10.352;2023-04-23T17:24:59;9.00;99.90
25170;DHT22;13129;48.012;10.352;2023-04-23T17:27:24;8.90;99.90
25170;DHT22;13129;48.012;10.352;2023-04-23T17:29:51;8.90;99.90
25170;DHT22;13129;48.012;10.352;2023-04-23T17:32:17;8.90;99.90
25170;DHT22;13129;48.012;10.352;2023-04-23T17:34:43;9.00;99.90
25170;DHT22;13129;48.012;10.352;2023-04-23T17:37:10;9.00;99.90
25170;DHT22;13129;48.012;10.352;2023-04-23T17:39:36;8.90;99.90
25170;DHT22;13129;48.012;10.352;2023-04-23T17:42:01;8.90;99.90
25170;DHT22;13129;48.012;10.352;2023-04-23T17:44:27;8.90;99.90
25170;DHT22;13129;48.012;10.352;2023-04-23T17:46:53;8.90;99.90
25170;DHT22;13129;48.012;10.352;2023-04-23T17:49:19;9.00;99.90
25170;DHT22;13129;48.012;10.352;2023-04-23T17:51:46;9.10;99.90
25170;DHT22;13129;48.012;10.352;2023-04-23T17:54:13;9.10;99.90
25170;DHT22;13129;48.012;10.352;2023-04-23T17:56:39;9.20;99.90
25170;DHT22;13129;48.012;10.352;2023-04-23T17:59:05;9.20;99.90
25170;DHT22;13129;48.012;10.352;2023-04-23T18:01:31;9.20;99.90
25170;DHT22;13129;48.012;10.352;2023-04-23T18:03:57;9.20;99.90
25170;DHT22;13129;48.012;10.352;2023-04-23T18:06:23;9.20;99.90
25170;DHT22;13129;48.012;10.352;2023-04-23T18:08:49;9.20;99.90
25170;DHT22;13129;48.012;10.352;2023-04-23T18:11:14;9.30;99.90
25170;DHT22;13129;48.012;10.352;2023-04-23T18:13:40;9.40;99.90
25170;DHT22;13129;48.012;10.352;2023-04-23T18:16:06;9.40;99.90
25170;DHT22;13129;48.012;10.352;2023-04-23T18:18:32;9.50;99.90
25170;DHT22;13129;48.012;10.352;2023-04-23T18:20:57;9.50;99.90
25170;DHT22;13129;48.012;10.352;2023-04-23T18:23:23;9.40;99.90
25170;DHT22;13129;48.012;10.352;2023-04-23T18:25:50;9.60;99.90
25170;DHT22;13129;48.012;10.352;2023-04-23T18:28:16;9.70;99.90
25170;DHT22;13129;48.012;10.352;2023-04-23T18:30:41;9.90;99.90
25170;DHT22;13129;48.012;10.352;2023-04-23T18:35:35;10.20;99.90
25170;DHT22;13129;48.012;10.352;2023-04-23T18:38:08;10.30;99.90
25170;DHT22;13129;48.012;10.352;2023-04-23T18:40:34;10.40;99.90
25170;DHT22;13129;48.012;10.352;2023-04-23T18:43:00;10.40;99.90
25170;DHT22;13129;48.012;10.352;2023-04-23T18:45:26;10.50;99.90
25170;DHT22;13129;48.012;10.352;2023-04-23T18:48:03;10.50;99.90
25170;DHT22;13129;48.012;10.352;2023-04-23T18:50:48;10.40;99.90
25170;DHT22;13129;48.012;10.352;2023-04-23T18:53:14;10.40;99.90
25170;DHT22;13129;48.012;10.352;2023-04-23T18:55:40;10.40;99.90
25170;DHT22;13129;48.012;10.352;2023-04-23T18:58:05;10.30;99.90